Time;durP1;ratioP1;P1;durP2;ratioP2;P2;SDS_P1;SDS_P2;PMS_P1;PMS_P2;Temp;Humidity;BMP_temperature;BMP_pressure;BME280_temperature;BME280_humidity;BME280_pressure;Samples;Min_cycle;Max_cycle;Signal;HPM_P1;HPM_P2
2023/03/06 00:00:28;;;;;;;8.73;2.20;;;2.90;99.90;;;;;;5073998;28;20049;-70
2023/03/06 00:02:54;;;;;;;5.47;2.30;;;2.90;99.90;;;;;;5096107;28;20395;-70
2023/03/06 00:05:20;;;;;;;5.30;2.50;;;2.90;99.90;;;;;;5056913;28;20057;-70
2023/03/06 00:07:46;;;;;;;7.10;2.30;;;2.90;99.90;;;;;;5076977;28;20107;-70
2023/03/06 00:10:23;;;;;;;7.83;2.67;;;2.90;99.90;;;;;;5056789;28;20071;-71
2023/03/06 00:12:54;;;;;;;5.23;2.40;;;2.90;99.90;;;;;;5091971;28;20441;-70
2023/03/06 00:15:21;;;;;;;5.10;2.27;;;2.90;99.90;;;;;;5077000;28;20052;-71
2023/03/06 00:17:47;;;;;;;4.90;2.53;;;2.90;99.90;;;;;;5075791;28;20044;-71
2023/03/06 00:20:14;;;;;;;5.03;2.23;;;2.90;99.90;;;;;;5059069;28;20108;-70
2023/03/06 00:22:40;;;;;;;4.53;2.33;;;2.90;99.90;;;;;;5094652;28;20040;-70
2023/03/06 00:25:08;;;;;;;8.13;2.47;;;2.90;99.90;;;;;;5060634;28;20338;-70
2023/03/06 00:27:33;;;;;;;7.53;2.50;;;2.90;99.90;;;;;;5076237;28;20047;-70
2023/03/06 00:30:00;;;;;;;5.73;2.37;;;2.90;99.90;;;;;;5057186;28;20219;-70
2023/03/06 00:32:27;;;;;;;6.57;2.30;;;2.90;99.90;;;;;;5075066;28;20046;-70
2023/03/06 00:34:53;;;;;;;7.03;2.10;;;2.90;99.90;;;;;;5076180;28;20032;-70
2023/03/06 00:37:20;;;;;;;6.87;2.30;;;2.90;99.90;;;;;;5058824;28;20091;-70
2023/03/06 00:39:46;;;;;;;5.23;2.50;;;2.90;99.90;;;;;;5094503;28;20148;-70
2023/03/06 00:42:12;;;;;;;8.67;2.60;;;2.90;99.90;;;;;;5060591;28;20068;-70
2023/03/06 00:44:37;;;;;;;7.37;3.10;;;2.90;99.90;;;;;;5076239;28;20144;-69
2023/03/06 00:47:03;;;;;;;5.30;2.17;;;2.90;99.90;;;;;;5094835;28;20044;-70
2023/03/06 00:49:29;;;;;;;4.97;2.30;;;2.90;99.90;;;;;;5073083;28;20102;-70
2023/03/06 00:51:55;;;;;;;4.70;2.40;;;2.90;99.90;;;;;;5056166;28;20040;-68
2023/03/06 00:54:20;;;;;;;5.73;2.63;;;2.90;99.90;;;;;;5060250;28;20054;-70
2023/03/06 00:56:46;;;;;;;5.60;2.70;;;2.90;99.90;;;;;;5075416;28;20074;-70
2023/03/06 00:59:12;;;;;;;6.60;2.13;;;2.90;99.90;;;;;;5073172;28;20051;-70
2023/03/06 01:01:38;;;;;;;6.70;2.67;;;2.90;99.90;;;;;;5091481;28;20046;-70
2023/03/06 01:04:03;;;;;;;5.43;2.30;;;2.90;99.90;;;;;;5074061;28;20079;-70
2023/03/06 01:06:29;;;;;;;5.93;2.33;;;2.90;99.90;;;;;;5059179;28;20048;-70
2023/03/06 01:08:55;;;;;;;6.17;2.60;;;2.90;99.90;;;;;;5057074;28;20050;-70
2023/03/06 01:11:21;;;;;;;8.13;2.70;;;2.90;99.90;;;;;;5042389;28;20043;-70
2023/03/06 01:13:46;;;;;;;4.63;2.33;;;2.90;99.90;;;;;;5058383;28;20046;-70
2023/03/06 01:16:14;;;;;;;5.67;2.37;;;2.90;99.90;;;;;;5066674;28;20074;-70
2023/03/06 01:18:41;;;;;;;5.70;2.50;;;2.90;99.90;;;;;;5071864;28;20051;-70
2023/03/06 01:21:07;;;;;;;6.97;2.73;;;2.90;99.90;;;;;;5074377;28;20045;-70
2023/03/06 01:23:33;;;;;;;8.37;3.00;;;2.90;99.90;;;;;;5058575;28;20044;-69
2023/03/06 01:25:59;;;;;;;4.10;2.10;;;2.90;99.90;;;;;;5075670;28;20056;-70
2023/03/06 01:28:26;;;;;;;3.47;2.60;;;3.00;99.90;;;;;;5076165;28;20052;-69
2023/03/06 01:30:51;;;;;;;6.77;2.40;;;2.90;99.90;;;;;;5040826;28;20222;-70
2023/03/06 01:33:17;;;;;;;4.50;2.40;;;3.00;99.90;;;;;;5057451;28;20118;-70
2023/03/06 01:35:43;;;;;;;6.87;2.63;;;3.00;99.90;;;;;;5038513;28;20044;-70
2023/03/06 01:38:09;;;;;;;4.27;2.53;;;3.00;99.90;;;;;;5075387;28;20070;-70
2023/03/06 01:40:36;;;;;;;6.03;2.30;;;3.00;99.90;;;;;;5075573;28;20097;-71
2023/03/06 01:43:35;;;;;;;5.33;2.43;;;3.00;99.90;;;;;;5087915;28;20044;-70
2023/03/06 01:46:32;;;;;;;4.63;2.73;;;3.00;99.90;;;;;;5074506;28;20048;-70
2023/03/06 01:49:07;;;;;;;7.63;2.30;;;3.00;99.90;;;;;;5071440;28;20047;-70
2023/03/06 01:51:38;;;;;;;4.70;2.20;;;3.00;99.90;;;;;;5073526;28;20126;-70
2023/03/06 01:54:09;;;;;;;5.67;2.40;;;3.00;99.90;;;;;;5094227;28;20044;-70
2023/03/06 01:56:36;;;;;;;5.88;2.65;;;3.00;99.90;;;;;;5071666;28;20672;-70
2023/03/06 01:59:03;;;;;;;5.10;2.13;;;3.00;99.90;;;;;;5091368;28;20729;-70
2023/03/06 02:01:31;;;;;;;3.93;2.50;;;3.00;99.90;;;;;;5057966;28;20519;-70
2023/03/06 02:03:58;;;;;;;6.70;2.97;;;2.90;99.90;;;;;;5058840;28;20051;-70
2023/03/06 02:06:24;;;;;;;6.80;2.97;;;2.90;99.90;;;;;;5075865;28;20048;-70
2023/03/06 02:08:51;;;;;;;7.00;3.10;;;3.00;99.90;;;;;;5091632;28;20043;-70
2023/03/06 02:11:23;;;;;;;5.47;2.93;;;2.90;99.90;;;;;;5071921;28;20040;-70
2023/03/06 02:13:50;;;;;;;7.00;3.30;;;2.90;99.90;;;;;;5073816;28;20048;-70
2023/03/06 02:16:18;;;;;;;7.23;3.20;;;2.90;99.90;;;;;;5074048;28;20036;-70
2023/03/06 02:18:45;;;;;;;5.60;2.60;;;2.90;99.90;;;;;;5092702;28;20062;-70
2023/03/06 02:21:19;;;;;;;6.17;2.80;;;2.90;99.90;;;;;;5074617;28;20043;-70
2023/03/06 02:23:48;;;;;;;4.67;2.70;;;2.90;99.90;;;;;;5073788;28;20035;-69
2023/03/06 02:26:14;;;;;;;7.03;2.67;;;2.90;99.90;;;;;;5056751;28;20052;-70
2023/03/06 02:28:40;;;;;;;6.33;2.80;;;2.90;99.90;;;;;;5074258;28;20040;-70
2023/03/06 02:31:06;;;;;;;6.43;2.80;;;2.90;99.90;;;;;;5051270;28;20059;-70
2023/03/06 02:33:32;;;;;;;7.90;2.80;;;2.90;99.90;;;;;;5075093;28;20047;-70
2023/03/06 02:36:04;;;;;;;5.47;2.87;;;2.90;99.90;;;;;;5075509;28;20048;-70
2023/03/06 02:38:43;;;;;;;9.40;3.13;;;2.90;99.90;;;;;;5090446;28;20059;-70
2023/03/06 02:41:09;;;;;;;5.20;2.73;;;2.90;99.90;;;;;;5060069;28;20044;-70
2023/03/06 02:43:37;;;;;;;7.53;2.93;;;2.80;99.90;;;;;;5080608;28;20403;-70
2023/03/06 02:46:03;;;;;;;5.20;2.90;;;2.90;99.90;;;;;;5100043;28;20071;-70
2023/03/06 02:48:29;;;;;;;7.83;2.70;;;2.90;99.90;;;;;;5059576;28;20305;-70
2023/03/06 02:50:54;;;;;;;6.57;2.87;;;2.90;99.90;;;;;;5061752;28;20048;-70
2023/03/06 02:53:20;;;;;;;6.17;2.53;;;2.90;99.90;;;;;;5079422;28;20032;-70
2023/03/06 02:55:48;;;;;;;5.73;2.87;;;2.80;99.90;;;;;;5099414;28;20043;-70
2023/03/06 02:58:13;;;;;;;5.47;2.90;;;2.80;99.90;;;;;;5082064;28;20048;-70
2023/03/06 03:00:40;;;;;;;7.33;3.03;;;2.80;99.90;;;;;;5047720;28;20044;-70
2023/03/06 03:03:06;;;;;;;4.87;2.80;;;2.80;99.90;;;;;;5081263;28;20482;-70
2023/03/06 03:05:32;;;;;;;4.57;2.63;;;2.80;99.90;;;;;;5077301;28;20045;-70
2023/03/06 03:07:57;;;;;;;4.90;3.20;;;2.80;99.90;;;;;;5061329;28;20105;-70
2023/03/06 03:10:24;;;;;;;6.03;3.50;;;2.70;99.90;;;;;;5063941;28;20129;-70
2023/03/06 03:12:50;;;;;;;6.10;2.80;;;2.70;99.90;;;;;;5063761;28;20043;-70
2023/03/06 03:15:16;;;;;;;4.47;2.47;;;2.60;99.90;;;;;;5061326;28;20399;-70
2023/03/06 03:17:42;;;;;;;3.17;2.60;;;2.50;99.90;;;;;;5077311;28;20049;-70
2023/03/06 03:20:11;;;;;;;2.53;2.30;;;2.40;99.90;;;;;;5098014;28;20056;-70
2023/03/06 03:22:37;;;;;;;5.10;2.23;;;2.20;99.90;;;;;;5060191;28;20084;-70
2023/03/06 03:25:04;;;;;;;3.73;2.30;;;2.10;99.90;;;;;;5078296;28;20044;-70
2023/03/06 03:27:30;;;;;;;4.57;2.30;;;2.00;99.90;;;;;;5060408;28;20590;-70
2023/03/06 03:29:59;;;;;;;4.07;2.10;;;1.90;99.90;;;;;;5060977;28;20075;-70
2023/03/06 03:32:26;;;;;;;3.07;2.63;;;1.80;99.90;;;;;;5055145;28;20131;-70
2023/03/06 03:34:54;;;;;;;3.30;2.30;;;1.70;99.90;;;;;;5076961;28;20048;-70
2023/03/06 03:37:20;;;;;;;3.40;2.20;;;1.70;99.90;;;;;;5078301;28;20620;-70
2023/03/06 03:39:46;;;;;;;2.90;2.20;;;1.60;99.90;;;;;;5043084;28;20080;-70
2023/03/06 03:42:11;;;;;;;2.23;2.03;;;1.60;99.90;;;;;;5064395;28;20103;-70
2023/03/06 03:44:37;;;;;;;2.97;2.13;;;1.50;99.90;;;;;;5043808;28;20056;-70
2023/03/06 03:47:03;;;;;;;3.10;2.60;;;1.50;99.90;;;;;;5063858;28;20043;-70
2023/03/06 03:49:29;;;;;;;2.57;2.37;;;1.50;99.90;;;;;;5061471;28;20222;-70
2023/03/06 03:51:55;;;;;;;3.37;2.50;;;1.40;99.90;;;;;;5043393;28;20043;-70
2023/03/06 03:54:20;;;;;;;3.30;2.70;;;1.40;99.90;;;;;;5025167;28;20049;-70
2023/03/06 03:56:46;;;;;;;2.90;2.70;;;1.40;99.90;;;;;;5087916;28;20043;-70
2023/03/06 03:59:12;;;;;;;3.47;3.10;;;1.40;99.90;;;;;;5044295;28;20521;-70
2023/03/06 04:01:37;;;;;;;3.30;3.00;;;1.40;99.90;;;;;;5060239;28;20130;-70
2023/03/06 04:04:03;;;;;;;3.97;3.27;;;1.30;99.90;;;;;;5043679;28;20131;-70
2023/03/06 04:06:29;;;;;;;3.63;3.27;;;1.30;99.90;;;;;;5074830;28;20101;-70
2023/03/06 04:08:56;;;;;;;3.60;3.30;;;1.30;99.90;;;;;;5043879;28;20051;-70
2023/03/06 04:11:22;;;;;;;3.50;3.20;;;1.30;99.90;;;;;;5060994;28;20040;-70
2023/03/06 04:13:47;;;;;;;4.03;3.40;;;1.30;99.90;;;;;;5063570;28;20062;-70
2023/03/06 04:16:13;;;;;;;3.80;3.37;;;1.30;99.90;;;;;;5056687;28;20123;-70
2023/03/06 04:18:39;;;;;;;5.70;3.70;;;1.30;99.90;;;;;;5043704;28;20106;-69
2023/03/06 04:21:04;;;;;;;4.10;3.70;;;1.30;99.90;;;;;;5040809;28;20043;-70
2023/03/06 04:23:30;;;;;;;4.40;3.70;;;1.30;99.90;;;;;;5060359;28;20508;-70
2023/03/06 04:25:56;;;;;;;4.37;3.40;;;1.30;99.90;;;;;;5040416;28;20401;-70
2023/03/06 04:28:22;;;;;;;4.13;3.20;;;1.30;99.90;;;;;;5040339;28;20062;-70
2023/03/06 04:30:47;;;;;;;4.20;3.70;;;1.40;99.90;;;;;;5034185;28;20484;-70
2023/03/06 04:33:13;;;;;;;5.07;3.70;;;1.40;99.90;;;;;;5094132;28;20040;-70
2023/03/06 04:35:39;;;;;;;5.27;3.40;;;1.50;99.90;;;;;;5076185;28;20053;-70
2023/03/06 04:38:04;;;;;;;5.20;3.40;;;1.50;99.90;;;;;;5077067;28;20070;-70
2023/03/06 04:40:33;;;;;;;5.33;3.63;;;1.50;99.90;;;;;;5073195;28;20052;-70
2023/03/06 04:43:00;;;;;;;4.17;3.20;;;1.60;99.90;;;;;;5055516;28;20642;-70
2023/03/06 04:45:29;;;;;;;3.67;3.07;;;1.60;99.90;;;;;;5075582;28;20041;-70
2023/03/06 04:47:55;;;;;;;3.73;3.00;;;1.60;99.90;;;;;;5041053;28;20040;-70
2023/03/06 04:50:22;;;;;;;4.03;2.90;;;1.60;99.90;;;;;;5077183;28;20049;-70
2023/03/06 04:52:49;;;;;;;4.83;2.90;;;1.60;99.90;;;;;;5076570;28;20050;-70
2023/03/06 04:55:16;;;;;;;4.30;2.97;;;1.60;99.90;;;;;;5059025;28;20052;-70
2023/03/06 04:57:43;;;;;;;3.23;2.73;;;1.60;99.90;;;;;;5040565;28;20082;-70
2023/03/06 05:00:21;;;;;;;4.43;3.20;;;1.60;99.90;;;;;;5075861;28;20068;-69
2023/03/06 05:02:48;;;;;;;8.27;4.60;;;1.60;99.90;;;;;;5059595;28;20032;-70
2023/03/06 05:05:15;;;;;;;3.20;2.90;;;1.60;99.90;;;;;;5094045;28;20113;-70
2023/03/06 05:07:41;;;;;;;4.03;3.07;;;1.60;99.90;;;;;;5066231;28;20056;-70
2023/03/06 05:10:10;;;;;;;3.43;2.77;;;1.60;99.90;;;;;;5055661;28;20090;-70
2023/03/06 05:12:37;;;;;;;3.53;3.03;;;1.60;99.90;;;;;;5075302;28;20062;-70
2023/03/06 05:15:04;;;;;;;11.77;5.77;;;1.60;99.90;;;;;;5076392;28;20052;-70
2023/03/06 05:17:30;;;;;;;21.13;10.77;;;1.60;99.90;;;;;;5076204;28;20047;-70
2023/03/06 05:19:56;;;;;;;5.97;3.13;;;1.70;99.90;;;;;;5058204;28;20036;-70
2023/03/06 05:22:21;;;;;;;3.43;2.80;;;1.70;99.90;;;;;;5027602;28;20075;-70
2023/03/06 05:24:47;;;;;;;5.10;2.80;;;1.70;99.90;;;;;;5057655;28;20040;-70
2023/03/06 05:27:13;;;;;;;3.30;2.53;;;1.60;99.90;;;;;;5039281;28;20068;-70
2023/03/06 05:29:38;;;;;;;3.00;2.70;;;1.60;99.90;;;;;;5072473;28;20384;-70
2023/03/06 05:32:04;;;;;;;3.53;2.50;;;1.70;99.90;;;;;;5042841;28;20055;-70
2023/03/06 05:34:30;;;;;;;3.43;2.40;;;1.60;99.90;;;;;;5068878;28;20174;-70
2023/03/06 05:36:56;;;;;;;3.83;2.43;;;1.60;99.90;;;;;;5069674;28;20109;-70
2023/03/06 05:39:21;;;;;;;3.10;2.73;;;1.60;99.90;;;;;;5075309;28;20095;-71
2023/03/06 05:41:47;;;;;;;4.17;2.77;;;1.60;99.90;;;;;;5025756;28;20057;-70
2023/03/06 05:44:13;;;;;;;4.10;2.60;;;1.70;99.90;;;;;;5093412;28;20066;-70
2023/03/06 05:46:38;;;;;;;2.97;2.67;;;1.70;99.90;;;;;;5093718;28;20044;-70
2023/03/06 05:49:04;;;;;;;4.50;2.60;;;1.70;99.90;;;;;;5040013;28;20041;-70
2023/03/06 05:51:30;;;;;;;3.80;2.77;;;1.70;99.90;;;;;;5041886;28;20048;-70
2023/03/06 05:53:56;;;;;;;2.60;2.30;;;1.80;99.90;;;;;;5075339;28;20039;-70
2023/03/06 05:56:21;;;;;;;5.00;3.00;;;1.80;99.90;;;;;;5041588;28;20064;-70
2023/03/06 05:58:47;;;;;;;3.97;2.87;;;1.70;99.90;;;;;;5075935;28;20044;-70
2023/03/06 06:01:19;;;;;;;4.23;2.93;;;1.70;99.90;;;;;;5073629;28;20040;-70
2023/03/06 06:03:45;;;;;;;3.65;2.47;;;1.60;99.90;;;;;;5051236;28;20064;-70
2023/03/06 06:06:12;;;;;;;4.07;2.70;;;1.50;99.90;;;;;;5071334;28;20040;-70
2023/03/06 06:08:38;;;;;;;3.20;2.60;;;1.50;99.90;;;;;;5058952;28;20039;-70
2023/03/06 06:11:06;;;;;;;5.57;3.17;;;1.50;99.90;;;;;;5059124;28;20056;-72
2023/03/06 06:13:32;;;;;;;4.77;3.10;;;1.60;99.90;;;;;;5092347;28;20043;-70
2023/03/06 06:15:58;;;;;;;3.43;2.80;;;1.60;99.90;;;;;;5038885;28;20110;-70
2023/03/06 06:18:24;;;;;;;4.97;3.43;;;1.60;99.90;;;;;;5037671;28;20389;-70
2023/03/06 06:20:50;;;;;;;6.77;3.30;;;1.70;99.90;;;;;;5074959;28;20109;-69
2023/03/06 06:23:15;;;;;;;4.93;3.43;;;1.70;99.90;;;;;;5054789;28;20072;-70
2023/03/06 06:25:41;;;;;;;4.47;3.13;;;1.70;99.90;;;;;;5074059;28;20071;-70
2023/03/06 06:28:07;;;;;;;4.30;2.70;;;1.70;99.90;;;;;;5054237;28;20108;-72
2023/03/06 06:30:33;;;;;;;3.97;3.17;;;1.70;99.90;;;;;;5067475;28;20250;-71
2023/03/06 06:32:59;;;;;;;5.47;3.23;;;1.70;99.90;;;;;;5057307;28;20075;-71
2023/03/06 06:35:25;;;;;;;4.67;2.93;;;1.70;99.90;;;;;;5033054;28;20073;-72
2023/03/06 06:37:51;;;;;;;5.40;3.20;;;1.70;99.90;;;;;;5069677;28;20040;-71
2023/03/06 06:40:17;;;;;;;6.07;3.30;;;1.80;99.90;;;;;;5034320;28;20171;-71
2023/03/06 06:42:45;;;;;;;8.63;3.37;;;1.70;99.90;;;;;;5070641;28;20080;-71
2023/03/06 06:45:12;;;;;;;4.43;3.23;;;1.70;99.90;;;;;;5045394;28;20052;-71
2023/03/06 06:47:42;;;;;;;4.13;2.90;;;1.70;99.90;;;;;;5051591;28;20485;-71
2023/03/06 06:50:12;;;;;;;4.77;3.27;;;1.70;99.90;;;;;;5074062;28;20074;-73
2023/03/06 06:52:38;;;;;;;3.80;2.97;;;1.70;99.90;;;;;;5055278;28;20787;-71
2023/03/06 06:55:04;;;;;;;9.67;2.90;;;1.70;99.90;;;;;;5057513;28;20048;-71
2023/03/06 06:57:30;;;;;;;4.90;2.87;;;1.60;99.90;;;;;;5068751;28;20040;-71
2023/03/06 06:59:56;;;;;;;5.27;3.10;;;1.60;99.90;;;;;;5066529;28;20105;-70
2023/03/06 07:02:21;;;;;;;4.30;2.80;;;1.60;99.90;;;;;;5038965;28;20051;-71
2023/03/06 07:04:47;;;;;;;4.40;2.80;;;1.70;99.90;;;;;;5038827;28;20055;-70
2023/03/06 07:07:13;;;;;;;3.87;2.93;;;1.70;99.90;;;;;;5058286;28;20040;-71
2023/03/06 07:09:39;;;;;;;4.23;2.93;;;1.80;99.90;;;;;;5056452;28;20497;-71
2023/03/06 07:12:06;;;;;;;6.20;2.77;;;1.80;99.90;;;;;;5022272;28;20056;-71
2023/03/06 07:14:32;;;;;;;5.43;3.27;;;1.80;99.90;;;;;;5039508;28;20043;-71
2023/03/06 07:16:57;;;;;;;4.33;2.73;;;1.80;99.90;;;;;;5055579;28;20044;-70
2023/03/06 07:19:23;;;;;;;3.27;2.47;;;1.80;99.90;;;;;;5073527;28;20040;-70
2023/03/06 07:21:50;;;;;;;3.03;2.40;;;1.80;99.90;;;;;;5072678;28;20044;-71
2023/03/06 07:24:15;;;;;;;3.33;2.40;;;1.80;99.90;;;;;;5092595;28;20040;-71
2023/03/06 07:26:46;;;;;;;4.73;2.30;;;1.90;99.90;;;;;;5056992;28;20047;-70
2023/03/06 07:29:12;;;;;;;4.10;2.40;;;1.90;99.90;;;;;;5073644;28;20119;-71
2023/03/06 07:31:38;;;;;;;3.80;2.90;;;1.90;99.90;;;;;;5070834;28;20084;-71
2023/03/06 07:34:04;;;;;;;3.63;2.53;;;1.90;99.90;;;;;;5077531;28;20054;-71
2023/03/06 07:36:30;;;;;;;3.77;2.47;;;1.90;99.90;;;;;;5061204;28;20043;-70
2023/03/06 07:38:55;;;;;;;4.80;2.73;;;2.00;99.90;;;;;;5078706;28;20036;-71
2023/03/06 07:41:21;;;;;;;2.83;2.20;;;2.00;99.90;;;;;;5030121;28;20036;-70
2023/03/06 07:43:47;;;;;;;4.93;2.60;;;2.00;99.90;;;;;;5076841;28;20056;-70
2023/03/06 07:46:13;;;;;;;3.43;2.57;;;2.00;99.90;;;;;;5074012;28;20057;-70
2023/03/06 07:48:40;;;;;;;3.47;2.30;;;2.00;99.90;;;;;;5060278;28;20090;-70
2023/03/06 07:51:10;;;;;;;3.27;2.37;;;2.10;99.90;;;;;;5060881;28;20104;-71
2023/03/06 07:53:36;;;;;;;3.87;2.50;;;2.10;99.90;;;;;;5092595;28;20040;-70
2023/03/06 07:56:07;;;;;;;2.63;2.10;;;2.10;99.90;;;;;;5076892;28;20132;-70
2023/03/06 07:58:34;;;;;;;2.40;2.07;;;2.20;99.90;;;;;;5077601;28;20127;-70
2023/03/06 08:01:09;;;;;;;3.57;2.60;;;2.20;99.90;;;;;;5043390;28;20079;-70
2023/03/06 08:03:36;;;;;;;3.60;2.37;;;2.30;99.90;;;;;;5060897;28;20044;-70
2023/03/06 08:06:11;;;;;;;3.37;2.13;;;2.30;99.90;;;;;;5075651;28;20078;-71
2023/03/06 08:08:38;;;;;;;3.43;2.33;;;2.30;99.90;;;;;;5092432;28;20275;-70
2023/03/06 08:11:05;;;;;;;2.93;2.30;;;2.40;99.90;;;;;;5069138;28;20093;-70
2023/03/06 08:13:31;;;;;;;5.30;2.70;;;2.50;99.90;;;;;;5073376;28;20221;-70
2023/03/06 08:15:58;;;;;;;3.93;2.80;;;2.60;99.90;;;;;;5058068;28;20055;-70
2023/03/06 08:18:24;;;;;;;3.80;2.60;;;2.60;99.90;;;;;;5073717;28;20094;-70
2023/03/06 08:20:59;;;;;;;4.53;3.00;;;2.60;99.90;;;;;;5076632;28;20040;-70
2023/03/06 08:23:25;;;;;;;5.53;2.90;;;2.60;99.90;;;;;;5072065;28;20050;-70
2023/03/06 08:25:58;;;;;;;4.00;2.40;;;2.60;99.90;;;;;;5026600;28;20095;-70
2023/03/06 08:28:24;;;;;;;5.93;2.87;;;2.70;99.90;;;;;;5074834;28;20125;-71
2023/03/06 08:30:50;;;;;;;6.30;2.80;;;2.80;99.90;;;;;;5090181;28;20036;-70
2023/03/06 08:33:15;;;;;;;3.80;2.70;;;3.00;99.90;;;;;;5077310;28;20040;-70
2023/03/06 08:35:41;;;;;;;3.57;2.20;;;3.10;99.90;;;;;;5059515;28;20039;-70
2023/03/06 08:38:07;;;;;;;5.87;2.73;;;3.20;99.90;;;;;;5059288;28;20072;-70
2023/03/06 08:40:32;;;;;;;3.47;2.53;;;3.40;99.90;;;;;;5058444;28;20108;-70
2023/03/06 08:42:58;;;;;;;4.73;2.50;;;3.50;99.90;;;;;;5043175;28;20059;-70
2023/03/06 08:45:24;;;;;;;4.53;2.20;;;3.60;99.90;;;;;;5073990;28;20049;-70
2023/03/06 08:47:49;;;;;;;5.40;2.20;;;3.70;99.90;;;;;;5076015;28;20048;-70
2023/03/06 08:50:15;;;;;;;5.40;2.60;;;3.80;99.90;;;;;;5059879;28;20503;-70
2023/03/06 08:52:41;;;;;;;4.27;2.27;;;3.80;99.90;;;;;;5056058;28;20047;-70
2023/03/06 08:55:07;;;;;;;4.13;1.93;;;3.80;99.90;;;;;;5042441;28;20044;-70
2023/03/06 08:57:33;;;;;;;3.80;2.10;;;3.80;99.90;;;;;;5043125;28;20090;-71
2023/03/06 08:59:59;;;;;;;4.20;2.23;;;3.90;99.90;;;;;;5040695;28;20044;-70
2023/03/06 09:02:24;;;;;;;2.70;2.00;;;3.90;99.90;;;;;;5076314;28;20254;-70
2023/03/06 09:04:50;;;;;;;2.43;2.03;;;4.00;99.90;;;;;;5075289;28;20048;-70
2023/03/06 09:07:16;;;;;;;4.70;2.10;;;4.00;99.90;;;;;;5057466;28;20036;-71
2023/03/06 09:09:41;;;;;;;2.60;1.90;;;4.10;99.90;;;;;;5025898;28;20586;-70
2023/03/06 09:12:07;;;;;;;5.17;1.70;;;4.20;99.90;;;;;;5026400;28;20044;-71
2023/03/06 09:14:33;;;;;;;4.67;1.90;;;4.30;99.90;;;;;;5025868;28;20044;-71
2023/03/06 09:16:58;;;;;;;3.70;1.57;;;4.40;99.90;;;;;;5058970;28;20052;-71
2023/03/06 09:19:24;;;;;;;3.97;1.80;;;4.50;99.90;;;;;;5042306;28;20075;-70
2023/03/06 09:21:50;;;;;;;4.03;1.47;;;4.60;99.90;;;;;;5058489;28;20621;-70
2023/03/06 09:24:15;;;;;;;3.40;1.50;;;4.60;99.90;;;;;;5073628;28;20044;-70
2023/03/06 09:26:41;;;;;;;3.37;1.43;;;4.70;99.90;;;;;;5039189;28;20523;-70
2023/03/06 09:29:07;;;;;;;4.10;1.37;;;4.80;99.90;;;;;;5058938;28;20056;-70
2023/03/06 09:31:33;;;;;;;2.70;1.20;;;4.80;99.90;;;;;;5058200;28;20043;-71
2023/03/06 09:33:59;;;;;;;4.27;1.40;;;4.80;99.90;;;;;;5055216;28;20048;-70
2023/03/06 09:36:24;;;;;;;2.97;1.30;;;4.80;99.90;;;;;;5075732;28;20116;-70
2023/03/06 09:38:50;;;;;;;3.80;1.60;;;4.90;99.90;;;;;;5040807;28;20040;-70
2023/03/06 09:41:23;;;;;;;2.70;1.07;;;5.00;99.90;;;;;;5025777;28;20048;-71
2023/03/06 09:44:00;;;;;;;3.90;1.30;;;5.10;99.90;;;;;;5056709;28;20055;-70
2023/03/06 09:46:50;;;;;;;2.80;1.57;;;5.10;99.90;;;;;;5075587;28;20043;-70
2023/03/06 09:49:29;;;;;;;2.83;1.40;;;5.20;99.90;;;;;;5091538;28;20044;-70
2023/03/06 09:52:10;;;;;;;7.07;1.60;;;5.20;99.90;;;;;;5053807;28;20082;-70
2023/03/06 09:54:51;;;;;;;4.90;1.80;;;5.20;99.90;;;;;;5054540;28;20133;-70
2023/03/06 09:57:53;;;;;;;3.88;1.60;;;5.20;99.90;;;;;;5091679;28;20220;-71
2023/03/06 10:00:25;;;;;;;2.83;1.40;;;5.20;99.90;;;;;;5014444;28;20071;-71
2023/03/06 10:02:55;;;;;;;;;;;5.20;99.90;;;;;;5070988;28;20405;-71
2023/03/06 10:05:32;;;;;;;2.60;1.10;;;5.10;99.90;;;;;;5071355;28;20229;-70
2023/03/06 10:08:19;;;;;;;2.33;1.30;;;5.20;99.90;;;;;;5072330;28;20040;-70
2023/03/06 10:10:52;;;;;;;2.90;1.20;;;5.30;99.90;;;;;;5091320;28;20471;-70
2023/03/06 10:13:35;;;;;;;2.43;1.20;;;5.20;99.90;;;;;;5093506;28;20054;-70
2023/03/06 10:16:31;;;;;;;4.27;1.30;;;5.20;99.90;;;;;;5042772;28;20078;-71
2023/03/06 10:19:09;;;;;;;3.17;1.10;;;5.30;99.90;;;;;;5049145;28;20048;-70
2023/03/06 10:22:08;;;;;;;3.70;1.10;;;5.50;99.90;;;;;;5068304;28;20063;-71
2023/03/06 10:25:01;;;;;;;3.33;1.00;;;5.60;99.90;;;;;;5091739;28;20043;-70
2023/03/06 10:27:46;;;;;;;2.37;0.83;;;5.60;99.90;;;;;;5069824;28;20177;-69
2023/03/06 10:30:12;;;;;;;3.30;1.20;;;5.70;99.90;;;;;;5069796;28;20044;-70
2023/03/06 10:32:57;;;;;;;2.40;0.87;;;5.80;99.90;;;;;;5074157;28;20051;-70
2023/03/06 10:35:47;;;;;;;4.43;0.90;;;5.80;99.90;;;;;;5052318;28;20684;-70
2023/03/06 10:38:31;;;;;;;2.47;0.90;;;5.90;99.90;;;;;;5089787;28;20050;-70
2023/03/06 10:41:11;;;;;;;3.47;0.90;;;5.90;99.90;;;;;;5090993;28;20040;-70
2023/03/06 10:43:39;;;;;;;3.63;1.00;;;6.00;99.90;;;;;;5053184;28;20110;-70
2023/03/06 10:46:07;;;;;;;3.60;0.90;;;6.20;99.90;;;;;;5074529;28;20048;-71
2023/03/06 10:48:35;;;;;;;3.83;1.00;;;6.30;99.90;;;;;;5056309;28;20127;-70
2023/03/06 10:51:18;;;;;;;2.80;0.80;;;6.40;99.90;;;;;;5071262;28;20041;-71
2023/03/06 10:54:12;;;;;;;3.03;0.80;;;6.40;99.90;;;;;;5071404;28;20078;-70
2023/03/06 10:56:41;;;;;;;1.60;0.70;;;6.30;99.90;;;;;;5089107;28;20087;-71
2023/03/06 10:59:16;;;;;;;2.67;0.77;;;6.40;99.90;;;;;;5074228;28;20435;-70
2023/03/06 11:01:47;;;;;;;3.00;0.53;;;6.40;99.90;;;;;;5072088;28;20063;-70
2023/03/06 11:04:13;;;;;;;1.70;0.60;;;6.50;99.90;;;;;;5096487;28;20133;-70
2023/03/06 11:06:39;;;;;;;2.80;0.70;;;6.60;99.90;;;;;;5075931;28;20331;-70
2023/03/06 11:09:24;;;;;;;2.23;0.70;;;6.70;99.90;;;;;;5078625;28;20052;-70
2023/03/06 11:11:51;;;;;;;2.00;0.57;;;6.80;99.90;;;;;;5074322;28;20515;-70
2023/03/06 11:14:21;;;;;;;2.40;0.60;;;6.80;99.90;;;;;;5095842;28;20088;-70
2023/03/06 11:16:52;;;;;;;2.10;0.63;;;6.70;99.90;;;;;;5094417;28;20051;-71
2023/03/06 11:19:28;;;;;;;1.50;0.60;;;6.70;99.90;;;;;;5052498;28;20053;-71
2023/03/06 11:22:16;;;;;;;1.10;0.50;;;6.60;99.90;;;;;;5074741;28;20044;-70
2023/03/06 11:24:47;;;;;;;4.33;0.60;;;6.50;99.90;;;;;;5095284;28;20078;-71
2023/03/06 11:27:25;;;;;;;2.22;0.60;;;6.60;99.90;;;;;;5096550;28;20414;-70
2023/03/06 11:29:53;;;;;;;4.13;0.70;;;6.70;99.90;;;;;;5061027;28;20044;-70
2023/03/06 11:32:46;;;;;;;5.67;1.03;;;6.90;99.90;;;;;;5077991;28;20055;-71
2023/03/06 11:35:19;;;;;;;3.23;0.60;;;7.10;99.90;;;;;;5064371;28;20401;-71
2023/03/06 11:37:53;;;;;;;5.03;0.80;;;7.00;99.90;;;;;;5077345;28;20059;-70
2023/03/06 11:40:30;;;;;;;0.70;0.50;;;7.00;99.90;;;;;;5054836;28;20053;-70
2023/03/06 11:43:18;;;;;;;0.97;0.87;;;6.90;99.90;;;;;;5074511;28;20467;-70
2023/03/06 11:46:09;;;;;;;0.87;0.83;;;6.90;99.90;;;;;;5078282;28;20189;-70
2023/03/06 11:49:14;;;;;;;1.73;0.80;;;6.90;99.90;;;;;;5058099;28;20052;-70
2023/03/06 11:51:46;;;;;;;1.70;0.70;;;7.00;99.90;;;;;;5049750;28;20068;-70
2023/03/06 11:54:13;;;;;;;3.20;0.63;;;7.00;99.90;;;;;;5096916;28;20455;-70
2023/03/06 11:56:58;;;;;;;2.27;0.60;;;7.00;99.90;;;;;;5096148;28;20483;-70
2023/03/06 11:59:33;;;;;;;3.07;0.60;;;7.00;99.90;;;;;;5062226;28;20052;-69
2023/03/06 12:02:38;;;;;;;1.10;0.60;;;6.90;99.90;;;;;;5078172;28;20060;-70
2023/03/06 12:05:44;;;;;;;1.90;0.83;;;6.80;99.90;;;;;;5084825;28;20048;-70
2023/03/06 12:08:22;;;;;;;2.07;0.63;;;6.70;99.90;;;;;;5040642;28;20052;-70
2023/03/06 12:10:56;;;;;;;0.73;0.50;;;6.60;99.90;;;;;;5071361;28;20060;-70
2023/03/06 12:13:26;;;;;;;3.40;0.70;;;6.50;99.90;;;;;;5074480;28;20251;-71
2023/03/06 12:16:15;;;;;;;2.73;0.70;;;6.40;99.90;;;;;;5077243;28;20051;-71
2023/03/06 12:19:07;;;;;;;1.93;0.60;;;6.40;99.90;;;;;;5073899;28;20040;-72
2023/03/06 12:21:41;;;;;;;3.13;0.70;;;6.40;99.90;;;;;;5045551;28;20083;-71
2023/03/06 12:24:22;;;;;;;2.40;0.90;;;6.50;99.90;;;;;;5054187;28;20519;-71
2023/03/06 12:26:52;;;;;;;1.23;0.60;;;6.50;99.90;;;;;;5071995;28;20043;-71
2023/03/06 12:29:27;;;;;;;2.07;0.50;;;6.60;99.90;;;;;;5076945;28;20062;-71
2023/03/06 12:32:13;;;;;;;1.20;0.60;;;6.70;99.90;;;;;;5091697;28;20454;-72
2023/03/06 12:35:16;;;;;;;1.67;0.80;;;6.80;99.90;;;;;;5075457;28;20063;-71
2023/03/06 12:38:10;;;;;;;1.83;0.63;;;6.90;99.90;;;;;;5094074;28;20657;-71
2023/03/06 12:41:01;;;;;;;1.53;0.60;;;6.80;99.90;;;;;;5095178;28;20056;-71
2023/03/06 12:44:03;;;;;;;1.65;0.65;;;6.70;99.90;;;;;;5076172;28;20446;-71
2023/03/06 12:46:29;;;;;;;1.97;0.73;;;6.60;99.90;;;;;;5048608;28;20108;-71
2023/03/06 12:49:22;;;;;;;2.17;0.73;;;6.60;99.90;;;;;;5068561;28;20098;-71
2023/03/06 12:51:48;;;;;;;1.63;0.87;;;6.50;99.90;;;;;;5091601;28;20419;-71
2023/03/06 12:54:14;;;;;;;1.93;0.90;;;6.50;99.90;;;;;;5091359;28;20977;-71
2023/03/06 12:56:40;;;;;;;2.50;0.90;;;6.50;99.90;;;;;;5056172;28;20044;-71
2023/03/06 12:59:58;;;;;;;1.80;0.70;;;6.50;99.90;;;;;;5072738;28;20186;-71
2023/03/06 13:02:46;;;;;;;1.47;0.80;;;6.50;99.90;;;;;;5038773;28;20152;-71
2023/03/06 13:05:36;;;;;;;1.30;0.90;;;6.50;99.90;;;;;;5092638;28;20040;-71
2023/03/06 13:08:49;;;;;;;3.67;0.90;;;6.50;99.90;;;;;;5060052;28;20040;-71
2023/03/06 13:11:43;;;;;;;1.53;0.80;;;6.50;99.90;;;;;;5095143;28;20108;-84
2023/03/06 13:14:26;;;;;;;2.03;0.90;;;6.60;99.90;;;;;;5069201;28;20075;-71